Time;durP1;ratioP1;P1;durP2;ratioP2;P2;SDS_P1;SDS_P2;PMS_P1;PMS_P2;Temp;Humidity;BMP_temperature;BMP_pressure;BME280_temperature;BME280_humidity;BME280_pressure;Samples;Min_cycle;Max_cycle;Signal;HPM_P1;HPM_P2
2021/03/31 00:00:37;;;;;;;27.45;11.57;;;;;;;6.52;50.75;102615.38;5041993;28;20376;-68
2021/03/31 00:03:11;;;;;;;27.45;11.13;;;;;;;6.42;50.96;102611.88;5036705;28;20495;-68
2021/03/31 00:05:37;;;;;;;20.23;10.57;;;;;;;6.35;50.98;102600.59;5039433;28;20033;-68
2021/03/31 00:08:03;;;;;;;23.42;10.55;;;;;;;6.25;50.95;102606.53;5036479;28;20033;-68
2021/03/31 00:10:34;;;;;;;22.15;10.90;;;;;;;6.13;51.09;102596.06;5032859;28;20075;-71
2021/03/31 00:12:59;;;;;;;21.95;10.63;;;;;;;6.20;51.17;102592.66;5024878;28;20056;-72
2021/03/31 00:15:25;;;;;;;26.00;12.75;;;;;;;6.18;51.13;102597.84;5053618;28;20575;-72
2021/03/31 00:17:51;;;;;;;27.02;11.07;;;;;;;6.18;51.95;102595.25;5042026;28;20037;-72
2021/03/31 00:20:17;;;;;;;33.72;12.50;;;;;;;6.18;51.98;102590.06;5038376;28;20515;-72
2021/03/31 00:22:43;;;;;;;30.77;11.40;;;;;;;6.28;51.53;102591.00;5037385;28;20500;-73
2021/03/31 00:25:11;;;;;;;27.17;12.70;;;;;;;6.25;51.20;102577.97;5039461;28;20061;-72
2021/03/31 00:27:37;;;;;;;23.58;11.38;;;;;;;6.12;51.15;102582.22;5041638;28;20029;-72
2021/03/31 00:30:05;;;;;;;20.85;10.57;;;;;;;6.27;51.17;102586.66;5040952;28;20359;-72
2021/03/31 00:32:31;;;;;;;20.08;10.55;;;;;;;6.28;50.85;102572.81;5020460;28;20041;-72
2021/03/31 00:34:56;;;;;;;27.33;12.00;;;;;;;6.19;50.60;102571.00;5044521;28;20036;-72
2021/03/31 00:37:21;;;;;;;23.95;12.05;;;;;;;6.07;50.68;102576.16;5041315;28;20022;-72
2021/03/31 00:39:47;;;;;;;22.92;10.25;;;;;;;6.05;50.43;102570.94;5042356;28;20033;-72
2021/03/31 00:42:12;;;;;;;23.08;10.73;;;;;;;6.03;50.48;102566.59;5041241;28;20086;-69
2021/03/31 00:44:38;;;;;;;24.65;10.95;;;;;;;6.01;50.31;102570.91;5039508;28;20025;-68
2021/03/31 00:47:04;;;;;;;26.77;12.30;;;;;;;5.91;50.05;102564.81;5042543;28;20512;-68
2021/03/31 00:49:30;;;;;;;23.38;11.50;;;;;;;5.89;50.64;102569.09;5042927;28;20056;-69
2021/03/31 00:51:56;;;;;;;23.27;11.02;;;;;;;5.90;50.47;102565.63;5043115;28;20040;-68
2021/03/31 00:54:22;;;;;;;24.42;11.77;;;;;;;5.84;50.32;102557.84;5039563;28;20022;-68
2021/03/31 00:56:48;;;;;;;30.45;11.75;;;;;;;5.75;50.56;102560.34;5045662;28;20040;-68
2021/03/31 00:59:13;;;;;;;21.60;12.15;;;;;;;5.76;50.58;102564.69;5041343;28;20072;-69
2021/03/31 01:01:39;;;;;;;28.38;12.88;;;;;;;5.76;50.55;102559.50;5040444;28;20511;-68
2021/03/31 01:04:04;;;;;;;26.45;11.13;;;;;;;5.76;50.24;102555.16;5045242;28;20024;-68
2021/03/31 01:06:30;;;;;;;20.25;10.95;;;;;;;5.79;50.07;102554.31;5032486;28;20510;-69
2021/03/31 01:08:55;;;;;;;29.63;12.50;;;;;;;5.73;49.98;102549.97;5042678;28;20040;-69
2021/03/31 01:11:43;;;;;;;22.65;11.63;;;;;;;5.71;50.18;102550.81;5039936;28;20534;-69
2021/03/31 01:14:45;;;;;;;27.40;13.15;;;;;;;5.65;50.29;102541.25;5042244;28;20040;-69
2021/03/31 01:17:20;;;;;;;22.15;11.35;;;;;;;5.54;50.20;102538.56;5056565;28;20502;-69
2021/03/31 01:20:04;;;;;;;29.02;12.90;;;;;;;5.58;50.29;102537.75;5040693;28;20065;-69
2021/03/31 01:23:03;;;;;;;26.73;12.77;;;;;;;5.57;50.22;102532.53;5040718;28;20029;-69
2021/03/31 01:26:01;;;;;;;27.65;14.45;;;;;;;5.45;51.03;102529.00;5040293;28;20407;-69
2021/03/31 01:29:04;;;;;;;25.33;13.07;;;;;;;5.38;51.99;102532.41;5038787;28;20450;-68
2021/03/31 01:31:46;;;;;;;26.55;13.25;;;;;;;5.39;52.01;102525.47;5039384;28;20029;-69
2021/03/31 01:34:29;;;;;;;31.50;15.55;;;;;;;5.41;52.65;102529.84;5043789;28;20060;-69
2021/03/31 01:36:55;;;;;;;30.13;13.43;;;;;;;5.56;52.52;102529.09;5045995;28;20055;-69
2021/03/31 01:39:23;;;;;;;27.55;13.05;;;;;;;5.60;52.09;102527.41;5038279;28;20029;-69
2021/03/31 01:41:50;;;;;;;24.63;13.07;;;;;;;5.58;52.14;102524.78;5040878;28;20036;-69
2021/03/31 01:44:18;;;;;;;29.65;13.70;;;;;;;5.52;51.30;102527.31;5040111;28;20029;-69
2021/03/31 01:46:52;;;;;;;24.25;12.98;;;;;;;5.49;51.12;102514.34;5041438;28;20038;-68
2021/03/31 01:49:20;;;;;;;25.88;11.32;;;;;;;5.35;50.96;102510.78;5038533;28;20083;-71
2021/03/31 01:51:48;;;;;;;28.13;12.27;;;;;;;5.24;51.45;102514.16;5057135;28;20040;-72
2021/03/31 01:54:16;;;;;;;26.92;11.20;;;;;;;5.23;51.93;102506.34;5040184;28;20542;-72
2021/03/31 01:56:44;;;;;;;29.88;12.48;;;;;;;5.30;51.77;102495.19;5040010;28;20533;-71
2021/03/31 01:59:11;;;;;;;26.70;12.00;;;;;;;5.32;51.86;102496.03;5040726;28;20032;-71
2021/03/31 02:01:36;;;;;;;24.27;11.43;;;;;;;5.35;52.11;102501.28;5039557;28;20041;-72
2021/03/31 02:04:04;;;;;;;24.40;11.82;;;;;;;5.36;51.75;102497.81;5042261;28;20056;-72
2021/03/31 02:06:32;;;;;;;24.45;11.65;;;;;;;5.32;52.12;102497.78;5039047;28;20029;-71
2021/03/31 02:08:59;;;;;;;21.75;11.45;;;;;;;5.18;51.30;102493.34;5045300;28;20033;-71
2021/03/31 02:11:27;;;;;;;17.73;10.02;;;;;;;5.13;51.65;102489.00;5039121;28;20034;-71
2021/03/31 02:13:53;;;;;;;25.13;10.60;;;;;;;5.13;51.24;102492.44;5039827;28;20075;-69
2021/03/31 02:16:19;;;;;;;23.45;11.80;;;;;;;5.10;52.16;102486.34;5036850;28;20122;-69
2021/03/31 02:18:46;;;;;;;26.30;13.38;;;;;;;5.12;52.63;102482.06;5039915;28;21744;-69
2021/03/31 02:21:13;;;;;;;29.25;13.35;;;;;;;5.22;52.63;102474.38;5038841;28;20039;-71
2021/03/31 02:23:39;;;;;;;28.08;14.18;;;;;;;5.28;52.50;102483.03;5041098;28;20037;-74
2021/03/31 02:26:04;;;;;;;27.10;13.38;;;;;;;5.25;52.20;102479.56;5041013;28;20403;-74
2021/03/31 02:28:31;;;;;;;34.78;11.88;;;;;;;5.16;51.86;102474.31;5055414;28;20033;-70
2021/03/31 02:30:57;;;;;;;25.27;11.10;;;;;;;5.17;51.55;102478.66;5038641;28;20129;-70
2021/03/31 02:33:23;;;;;;;26.27;11.90;;;;;;;5.14;51.34;102472.56;5025509;28;20116;-70
2021/03/31 02:35:49;;;;;;;21.75;10.73;;;;;;;5.02;51.34;102475.94;5037433;28;20507;-72
2021/03/31 02:38:17;;;;;;;22.67;11.25;;;;;;;4.98;51.29;102463.81;5044044;28;20033;-71
2021/03/31 02:40:46;;;;;;;23.92;11.30;;;;;;;4.92;51.27;102464.63;5039730;28;20112;-70
2021/03/31 02:43:14;;;;;;;25.67;11.18;;;;;;;4.93;51.17;102470.66;5054148;28;20037;-71
2021/03/31 02:45:42;;;;;;;28.38;11.98;;;;;;;4.85;51.13;102467.97;5038867;28;20140;-70
2021/03/31 02:48:11;;;;;;;22.42;10.95;;;;;;;4.81;51.32;102459.31;5038187;28;20658;-70
2021/03/31 02:50:38;;;;;;;21.88;10.85;;;;;;;4.76;51.27;102460.09;5040124;28;20065;-71
2021/03/31 02:53:04;;;;;;;23.33;11.75;;;;;;;4.79;51.29;102450.66;5040134;28;20048;-71
2021/03/31 02:55:29;;;;;;;23.52;11.10;;;;;;;4.81;51.21;102445.47;5037309;28;20030;-70
2021/03/31 02:57:57;;;;;;;21.05;9.20;;;;;;;4.90;50.86;102442.13;5039696;28;20128;-69
2021/03/31 03:00:24;;;;;;;20.27;9.30;;;;;;;4.90;50.68;102444.72;5039101;28;20467;-69
2021/03/31 03:02:51;;;;;;;17.88;9.23;;;;;;;4.86;50.69;102437.75;5040777;28;20043;-73
2021/03/31 03:05:19;;;;;;;18.00;8.85;;;;;;;4.78;50.84;102430.75;5038545;28;20040;-74
2021/03/31 03:07:46;;;;;;;17.15;9.70;;;;;;;4.76;50.89;102436.78;5028080;28;20095;-74
2021/03/31 03:10:12;;;;;;;25.73;9.82;;;;;;;4.76;50.80;102431.59;5039596;28;20033;-74
2021/03/31 03:12:45;;;;;;;18.67;9.98;;;;;;;4.75;50.85;102420.38;5045075;28;20687;-74
2021/03/31 03:15:13;;;;;;;23.73;9.93;;;;;;;4.69;50.55;102425.50;5041720;28;20033;-74
2021/03/31 03:17:40;;;;;;;18.50;8.73;;;;;;;4.66;50.45;102428.06;5053627;28;20455;-73
2021/03/31 03:20:08;;;;;;;22.58;10.95;;;;;;;4.58;50.56;102421.94;5039500;28;20021;-74
2021/03/31 03:22:34;;;;;;;22.45;10.32;;;;;;;4.53;50.82;102418.44;5032019;28;20490;-73
2021/03/31 03:25:01;;;;;;;22.25;10.35;;;;;;;4.50;50.96;102418.41;5043060;28;20029;-71
2021/03/31 03:27:27;;;;;;;24.63;11.85;;;;;;;4.52;51.34;102419.28;5039394;28;20021;-72
2021/03/31 03:29:54;;;;;;;25.52;12.63;;;;;;;4.52;51.14;102411.53;5038452;28;20403;-76
2021/03/31 03:32:21;;;;;;;32.95;14.32;;;;;;;4.50;51.27;102411.53;5037933;28;20056;-73
2021/03/31 03:34:48;;;;;;;25.48;12.00;;;;;;;4.43;51.54;102407.13;5039606;28;20056;-75
2021/03/31 03:37:17;;;;;;;22.73;11.50;;;;;;;4.46;51.47;102407.16;5038262;28;20033;-75
2021/03/31 03:39:42;;;;;;;27.15;11.65;;;;;;;4.43;51.51;102408.00;5038195;28;20028;-69
2021/03/31 03:42:08;;;;;;;21.25;11.05;;;;;;;4.45;51.39;102410.59;5038571;28;20051;-69
2021/03/31 03:44:33;;;;;;;24.58;11.93;;;;;;;4.43;51.40;102407.13;5030815;28;20035;-69
2021/03/31 03:46:59;;;;;;;25.15;12.27;;;;;;;4.44;51.75;102403.69;5038730;28;20086;-74
2021/03/31 03:49:25;;;;;;;26.90;12.70;;;;;;;4.55;51.07;102385.66;5042710;28;20025;-72
2021/03/31 03:51:51;;;;;;;24.00;10.35;;;;;;;4.54;50.74;102399.47;5043246;28;20118;-71
2021/03/31 03:54:17;;;;;;;25.25;11.50;;;;;;;4.50;50.69;102388.22;5037978;28;20037;-71
2021/03/31 03:56:47;;;;;;;26.25;10.52;;;;;;;4.49;50.75;102390.78;5037287;28;20037;-72
2021/03/31 03:59:24;;;;;;;22.45;11.23;;;;;;;4.49;50.79;102388.19;5052520;28;20041;-72
2021/03/31 04:01:50;;;;;;;21.73;11.23;;;;;;;4.40;50.86;102392.41;5036365;28;20040;-73
2021/03/31 04:04:17;;;;;;;23.42;12.52;;;;;;;4.41;50.66;102381.22;5038378;28;20041;-72
2021/03/31 04:06:43;;;;;;;23.95;10.60;;;;;;;4.35;50.66;102386.34;5021168;28;20419;-73
2021/03/31 04:09:09;;;;;;;22.85;11.82;;;;;;;4.29;50.70;102378.50;5036513;28;20040;-72
2021/03/31 04:11:36;;;;;;;28.27;12.70;;;;;;;4.28;50.60;102381.97;5036509;28;20044;-72
2021/03/31 04:14:04;;;;;;;24.23;11.27;;;;;;;4.19;50.44;102387.03;5041803;28;20031;-73
2021/03/31 04:16:32;;;;;;;22.85;11.02;;;;;;;4.21;50.63;102377.56;5039864;28;20064;-71
2021/03/31 04:19:04;;;;;;;25.05;10.90;;;;;;;4.21;50.59;102374.97;5037937;28;20041;-71
2021/03/31 04:21:35;;;;;;;24.40;11.52;;;;;;;4.16;50.69;102367.16;5040398;28;20029;-72
2021/03/31 04:24:01;;;;;;;25.73;11.68;;;;;;;4.17;50.80;102368.03;5039200;28;20029;-71
2021/03/31 04:26:30;;;;;;;26.08;11.20;;;;;;;4.05;50.98;102362.72;5036843;28;20037;-71
2021/03/31 04:28:56;;;;;;;25.90;11.93;;;;;;;4.03;51.11;102365.31;5039462;28;20032;-73
2021/03/31 04:31:23;;;;;;;25.77;10.82;;;;;;;3.95;51.20;102356.56;5037463;28;20037;-71
2021/03/31 04:33:52;;;;;;;28.58;11.73;;;;;;;3.97;51.13;102357.47;5037091;28;20045;-71
2021/03/31 04:36:19;;;;;;;28.20;11.85;;;;;;;3.91;51.28;102359.97;5035293;28;20123;-71
2021/03/31 04:38:49;;;;;;;22.00;12.63;;;;;;;3.91;51.11;102353.06;5039295;28;20034;-71
2021/03/31 04:41:15;;;;;;;27.42;12.07;;;;;;;3.90;50.94;102353.94;5035227;28;20119;-70
2021/03/31 04:43:41;;;;;;;25.92;11.38;;;;;;;3.81;51.08;102356.41;5053849;28;20040;-70
2021/03/31 04:46:10;;;;;;;22.67;10.90;;;;;;;3.81;51.38;102353.84;5038625;28;20395;-69
2021/03/31 04:48:37;;;;;;;30.30;11.75;;;;;;;3.82;51.28;102352.09;5051652;28;20089;-69
2021/03/31 04:51:03;;;;;;;30.17;11.15;;;;;;;3.77;51.10;102346.88;5037559;28;20036;-69
2021/03/31 04:53:29;;;;;;;25.52;11.45;;;;;;;3.83;50.97;102349.56;5035381;28;20033;-70
2021/03/31 04:55:55;;;;;;;28.10;12.63;;;;;;;3.80;51.19;102342.59;5037720;28;20056;-72
2021/03/31 04:58:20;;;;;;;24.45;10.75;;;;;;;3.85;51.44;102340.09;5035080;28;20028;-71
2021/03/31 05:00:46;;;;;;;20.55;10.98;;;;;;;3.97;51.09;102345.38;5039590;28;20028;-70
2021/03/31 05:03:11;;;;;;;26.20;11.18;;;;;;;3.99;50.88;102337.66;5035467;28;20029;-71
2021/03/31 05:05:37;;;;;;;24.63;10.23;;;;;;;3.93;51.04;102343.63;5039555;28;20025;-71
2021/03/31 05:08:02;;;;;;;24.92;11.13;;;;;;;3.97;50.72;102335.03;5035978;28;20021;-70
2021/03/31 05:10:28;;;;;;;27.35;11.77;;;;;;;4.00;50.67;102340.22;5039260;28;20463;-71
2021/03/31 05:12:54;;;;;;;21.08;11.30;;;;;;;4.04;50.62;102341.16;5041126;28;20179;-71
2021/03/31 05:15:20;;;;;;;20.95;10.80;;;;;;;4.05;50.79;102337.72;5041783;28;20130;-71
2021/03/31 05:17:46;;;;;;;18.63;9.02;;;;;;;4.10;50.69;102342.94;5041533;28;20056;-71
2021/03/31 05:20:12;;;;;;;22.73;10.07;;;;;;;4.16;50.66;102335.22;5041442;28;20056;-71
2021/03/31 05:22:38;;;;;;;20.13;9.68;;;;;;;4.17;50.49;102334.38;5044013;28;20108;-71
2021/03/31 05:25:05;;;;;;;23.40;11.15;;;;;;;4.17;51.37;102326.63;5047353;28;20035;-71
2021/03/31 05:27:32;;;;;;;31.52;14.88;;;;;;;4.36;52.38;102325.06;5041723;28;20044;-69
2021/03/31 05:29:58;;;;;;;43.97;18.88;;;;;;;4.53;52.94;102320.06;5040692;28;20350;-72
2021/03/31 05:32:23;;;;;;;36.53;15.60;;;;;;;4.74;53.12;102320.19;5042564;28;20037;-70
2021/03/31 05:34:49;;;;;;;35.92;16.10;;;;;;;4.91;52.79;102322.09;5038947;28;20054;-70
2021/03/31 05:37:14;;;;;;;44.22;17.25;;;;;;;5.04;52.70;102322.19;5040751;28;20075;-70
2021/03/31 05:39:40;;;;;;;38.80;17.58;;;;;;;5.15;52.45;102316.22;5038061;28;20045;-70
2021/03/31 05:42:08;;;;;;;38.38;16.60;;;;;;;5.22;51.66;102323.16;5041807;28;20032;-70
2021/03/31 05:44:34;;;;;;;32.28;14.10;;;;;;;5.40;51.13;102317.19;5039398;28;20039;-70
2021/03/31 05:47:00;;;;;;;35.55;14.88;;;;;;;5.55;50.35;102312.09;5046209;28;20029;-70
2021/03/31 05:49:26;;;;;;;37.38;14.77;;;;;;;5.70;50.13;102310.41;5040862;28;20041;-69
2021/03/31 05:51:52;;;;;;;33.90;14.32;;;;;;;5.78;49.83;102311.31;5043194;28;20052;-70
2021/03/31 05:54:18;;;;;;;29.08;12.30;;;;;;;5.88;49.68;102310.44;5038560;28;20202;-69
2021/03/31 05:56:44;;;;;;;29.58;13.18;;;;;;;6.53;48.81;102320.94;5041384;28;20185;-70
2021/03/31 05:59:10;;;;;;;24.50;10.85;;;;;;;8.36;45.01;102314.25;5042119;28;20025;-71
2021/03/31 06:01:39;;;;;;;20.38;11.80;;;;;;;10.28;42.11;102308.56;5040252;28;20025;-70
2021/03/31 06:04:05;;;;;;;26.48;11.90;;;;;;;11.80;36.82;102303.09;5041867;28;20852;-70
2021/03/31 06:06:31;;;;;;;23.63;10.60;;;;;;;13.23;33.99;102301.28;5037709;28;20113;-70
2021/03/31 06:08:57;;;;;;;21.88;10.52;;;;;;;14.06;31.09;102302.28;5040129;28;20037;-70
2021/03/31 06:11:23;;;;;;;23.73;11.52;;;;;;;14.63;31.51;102303.03;5043371;28;20084;-70
2021/03/31 06:13:56;;;;;;;22.92;9.70;;;;;;;15.08;31.45;102297.06;5040578;28;20429;-71
2021/03/31 06:16:43;;;;;;;20.25;10.13;;;;;;;16.12;29.00;102294.84;5044050;28;20045;-71
2021/03/31 06:19:22;;;;;;;18.98;9.85;;;;;;;16.59;28.20;102296.41;5042105;28;20048;-70
2021/03/31 06:22:19;;;;;;;24.95;10.57;;;;;;;17.01;27.65;102288.41;5045446;28;20052;-71
2021/03/31 06:25:01;;;;;;;25.40;12.52;;;;;;;16.65;29.49;102295.31;5035488;28;20063;-72
2021/03/31 06:27:29;;;;;;;21.50;11.02;;;;;;;17.44;27.03;102296.16;5041210;28;20055;-71
2021/03/31 06:30:04;;;;;;;22.02;10.18;;;;;;;18.01;26.15;102285.53;5040441;28;20033;-70
2021/03/31 06:32:41;;;;;;;24.67;13.38;;;;;;;18.16;26.80;102295.38;5036959;28;20057;-71
2021/03/31 06:35:20;;;;;;;29.90;13.65;;;;;;;18.39;26.29;102288.94;5038974;28;20536;-71
2021/03/31 06:37:45;;;;;;;22.45;12.60;;;;;;;19.01;26.10;102288.38;5043360;28;20040;-71
2021/03/31 06:40:45;;;;;;;23.42;13.07;;;;;;;19.15;25.41;102288.53;5039797;28;20123;-71
2021/03/31 06:43:31;;;;;;;29.05;13.98;;;;;;;19.03;25.84;102273.25;5041590;28;20418;-71
2021/03/31 06:46:04;;;;;;;30.60;15.18;;;;;;;19.12;24.33;102280.72;5039950;28;20036;-71
2021/03/31 06:48:31;;;;;;;25.85;14.43;;;;;;;19.13;25.81;102271.84;5042867;28;20025;-71
2021/03/31 06:50:57;;;;;;;22.60;13.60;;;;;;;19.89;23.70;102271.16;5042420;28;20533;-71
2021/03/31 06:53:30;;;;;;;22.95;14.27;;;;;;;20.05;23.80;102274.63;5040822;28;20049;-71
2021/03/31 06:56:03;;;;;;;25.65;14.88;;;;;;;20.47;23.23;102272.22;5046583;28;20037;-71
2021/03/31 06:58:29;;;;;;;27.30;16.45;;;;;;;20.89;22.68;102267.91;5038238;28;20514;-70
2021/03/31 07:00:55;;;;;;;23.67;14.52;;;;;;;21.23;22.54;102263.97;5038819;28;20020;-71
2021/03/31 07:03:21;;;;;;;28.30;16.30;;;;;;;20.86;22.26;102260.97;5039186;28;20076;-71
2021/03/31 07:05:47;;;;;;;25.83;14.63;;;;;;;20.61;22.58;102261.59;5039194;28;20513;-71
2021/03/31 07:08:15;;;;;;;23.63;14.82;;;;;;;20.44;22.71;102261.75;5042248;28;20052;-71
2021/03/31 07:10:50;;;;;;;25.73;13.88;;;;;;;20.83;21.87;102255.81;5037414;28;20025;-71
2021/03/31 07:13:37;;;;;;;23.73;14.45;;;;;;;21.50;21.52;102263.19;5042065;28;20107;-71
2021/03/31 07:16:04;;;;;;;20.45;14.35;;;;;;;21.16;22.05;102252.03;5054728;28;20025;-71
2021/03/31 07:18:32;;;;;;;21.42;14.10;;;;;;;21.01;22.46;102255.66;5053636;28;20041;-71
2021/03/31 07:20:59;;;;;;;23.20;13.05;;;;;;;21.25;22.46;102259.41;5038476;28;20553;-70
2021/03/31 07:23:26;;;;;;;21.95;13.00;;;;;;;21.27;22.72;102256.66;5037651;28;20418;-71
2021/03/31 07:25:56;;;;;;;22.17;13.55;;;;;;;21.84;22.46;102251.16;5037245;28;20027;-71
2021/03/31 07:28:28;;;;;;;18.38;12.30;;;;;;;23.12;21.72;102253.03;5034411;28;20609;-72
2021/03/31 07:30:55;;;;;;;18.77;12.48;;;;;;;23.65;19.81;102250.97;5042887;28;20526;-71
2021/03/31 07:33:25;;;;;;;22.70;14.48;;;;;;;22.95;21.33;102249.78;5035331;28;20029;-71
2021/03/31 07:35:51;;;;;;;18.60;13.77;;;;;;;23.97;19.77;102248.59;5023285;28;20029;-71
2021/03/31 07:38:21;;;;;;;23.25;13.27;;;;;;;24.71;18.86;102247.41;5036268;28;20039;-70
2021/03/31 07:40:50;;;;;;;18.10;12.88;;;;;;;24.74;18.40;102244.47;5039629;28;20396;-70
2021/03/31 07:43:37;;;;;;;24.35;13.40;;;;;;;25.33;18.52;102249.53;5037705;28;20032;-71
2021/03/31 07:46:13;;;;;;;19.25;13.02;;;;;;;24.83;17.91;102244.56;5038286;28;20362;-71
2021/03/31 07:48:40;;;;;;;20.42;13.80;;;;;;;25.41;18.37;102248.88;5039221;28;20565;-70
2021/03/31 07:51:26;;;;;;;20.48;12.93;;;;;;;25.84;18.11;102245.31;5042439;28;20100;-71
2021/03/31 07:53:54;;;;;;;19.33;13.23;;;;;;;25.87;16.92;102248.59;5040421;28;20047;-70
2021/03/31 07:56:36;;;;;;;19.00;13.20;;;;;;;25.94;16.93;102243.59;5041757;28;20040;-71
2021/03/31 07:59:01;;;;;;;23.58;14.73;;;;;;;25.10;17.59;102243.34;5037987;28;20672;-70
2021/03/31 08:01:51;;;;;;;20.27;13.55;;;;;;;26.20;17.12;102241.41;5036807;28;20116;-72
2021/03/31 08:04:22;;;;;;;17.83;12.80;;;;;;;26.89;16.34;102240.75;5037670;28;20351;-70
2021/03/31 08:06:55;;;;;;;22.20;13.55;;;;;;;27.40;16.19;102236.19;5037676;28;20124;-70
2021/03/31 08:09:29;;;;;;;23.27;13.50;;;;;;;27.40;15.58;102244.25;5038311;28;20037;-71
2021/03/31 08:12:00;;;;;;;19.45;13.05;;;;;;;27.72;15.69;102243.16;5037220;28;20033;-70
2021/03/31 08:14:26;;;;;;;22.48;12.45;;;;;;;27.73;14.93;102244.84;5034496;28;20044;-69
2021/03/31 08:16:54;;;;;;;19.42;12.73;;;;;;;26.93;15.46;102246.66;5037953;28;20029;-69
2021/03/31 08:19:24;;;;;;;18.85;13.10;;;;;;;26.57;15.25;102238.19;5035030;28;20167;-70
2021/03/31 08:21:53;;;;;;;24.00;13.70;;;;;;;27.48;15.49;102241.72;5035025;28;20048;-70
2021/03/31 08:24:42;;;;;;;20.67;12.00;;;;;;;27.83;15.44;102234.97;5035013;28;20529;-69
2021/03/31 08:27:08;;;;;;;20.33;12.60;;;;;;;28.68;14.11;102235.91;5034368;28;20054;-71
2021/03/31 08:29:44;;;;;;;19.30;12.30;;;;;;;29.14;13.42;102231.38;5035250;28;20460;-70
2021/03/31 08:32:11;;;;;;;22.10;14.23;;;;;;;29.17;13.78;102230.22;5036155;28;20181;-70
2021/03/31 08:34:42;;;;;;;18.23;13.18;;;;;;;28.54;13.91;102236.34;5034469;28;20075;-70
2021/03/31 08:37:18;;;;;;;24.33;12.70;;;;;;;27.63;13.49;102235.94;5034280;28;20032;-70
2021/03/31 08:39:44;;;;;;;23.75;13.73;;;;;;;27.24;15.27;102233.22;5035490;28;20104;-69
2021/03/31 08:42:09;;;;;;;20.42;14.25;;;;;;;27.53;15.51;102235.91;5038892;28;20567;-70
2021/03/31 08:44:39;;;;;;;21.40;14.05;;;;;;;26.59;15.42;102228.22;5033698;28;20672;-69
2021/03/31 08:47:20;;;;;;;17.05;12.52;;;;;;;26.12;15.99;102230.47;5039121;28;20025;-69
2021/03/31 08:49:48;;;;;;;21.58;13.10;;;;;;;25.69;16.18;102228.75;5036244;28;20041;-69
2021/03/31 08:52:16;;;;;;;17.52;11.88;;;;;;;24.88;16.95;102220.13;5034491;28;20045;-69
2021/03/31 08:54:45;;;;;;;22.65;13.68;;;;;;;25.21;16.87;102219.25;5041391;28;20535;-69
2021/03/31 08:57:16;;;;;;;18.02;11.05;;;;;;;26.41;15.71;102219.06;5036731;28;20043;-70
2021/03/31 08:59:44;;;;;;;21.30;13.40;;;;;;;26.40;14.66;102220.91;5038080;28;20052;-69
2021/03/31 09:02:10;;;;;;;22.67;12.82;;;;;;;24.91;15.82;102211.88;5040567;28;20444;-70
2021/03/31 09:04:36;;;;;;;22.02;13.88;;;;;;;24.56;16.00;102212.03;5053132;28;20041;-69
2021/03/31 09:07:05;;;;;;;21.42;13.38;;;;;;;22.85;18.25;102200.78;5043141;28;20032;-69
2021/03/31 09:09:35;;;;;;;23.45;13.85;;;;;;;24.07;17.89;102203.31;5040621;28;20346;-69
2021/03/31 09:12:02;;;;;;;23.40;13.30;;;;;;;24.31;17.68;102197.91;5039000;28;20059;-70
2021/03/31 09:14:28;;;;;;;21.55;13.88;;;;;;;23.83;17.74;102204.22;5035300;28;20045;-69
2021/03/31 09:17:00;;;;;;;17.50;13.00;;;;;;;24.28;19.15;102202.63;5040620;28;20044;-70
2021/03/31 09:19:28;;;;;;;21.50;12.73;;;;;;;24.60;18.02;102203.66;5035613;28;20037;-69
2021/03/31 09:21:54;;;;;;;25.25;14.18;;;;;;;24.20;17.57;102201.41;5037161;28;20037;-69
2021/03/31 09:24:26;;;;;;;26.90;13.77;;;;;;;23.55;18.82;102200.09;5037717;28;20582;-70
2021/03/31 09:27:02;;;;;;;26.38;13.05;;;;;;;24.29;18.64;102197.16;5038581;28;20060;-70
2021/03/31 09:29:28;;;;;;;19.30;13.75;;;;;;;24.81;18.19;102202.91;5036238;28;20300;-70
2021/03/31 09:31:56;;;;;;;24.52;14.10;;;;;;;24.17;18.20;102196.31;5039202;28;20540;-70
2021/03/31 09:34:21;;;;;;;23.40;14.20;;;;;;;23.94;17.79;102198.06;5035574;28;20116;-69
2021/03/31 09:36:58;;;;;;;24.10;14.40;;;;;;;24.24;17.38;102192.19;5040045;28;20120;-68
2021/03/31 09:39:39;;;;;;;24.00;14.45;;;;;;;24.36;19.30;102190.38;5033915;28;20681;-69
2021/03/31 09:42:05;;;;;;;;;;;;;;;24.64;18.84;102191.75;5041574;28;20037;-69
2021/03/31 09:44:32;;;;;;;17.20;12.25;;;;;;;25.34;18.02;102189.66;5049279;28;19913;-70
2021/03/31 09:46:59;;;;;;;21.10;13.50;;;;;;;24.74;16.84;102183.81;5039334;28;20025;-69
2021/03/31 09:49:26;;;;;;;22.80;14.82;;;;;;;24.56;17.23;102175.47;5035332;28;20048;-69
2021/03/31 09:51:51;;;;;;;19.73;13.52;;;;;;;25.01;17.96;102180.75;5038417;28;20033;-68
2021/03/31 09:54:17;;;;;;;21.35;13.55;;;;;;;25.36;16.78;102179.69;5050714;23;20664;-81
2021/03/31 09:56:44;;;;;;;29.05;13.80;;;;;;;25.97;16.08;102172.81;5038761;28;20043;-82
2021/03/31 09:59:10;;;;;;;22.35;14.68;;;;;;;25.58;16.38;102169.91;5034609;28;20059;-85
2021/03/31 10:01:37;;;;;;;25.27;13.82;;;;;;;25.59;16.55;102171.59;5046027;28;20573;-79
2021/03/31 10:04:03;;;;;;;21.63;14.00;;;;;;;25.59;17.65;102167.06;5037100;28;20036;-78
2021/03/31 10:06:28;;;;;;;24.15;13.63;;;;;;;24.70;16.71;102160.97;5055879;28;20028;-81
2021/03/31 10:08:54;;;;;;;21.83;13.75;;;;;;;25.40;17.06;102162.41;5053199;28;20040;-81
2021/03/31 10:11:38;;;;;;;27.38;14.68;;;;;;;24.95;17.56;102159.88;5036203;28;20510;-79
2021/03/31 10:14:16;;;;;;;22.38;14.43;;;;;;;24.93;17.50;102161.81;5054700;28;20320;-79
2021/03/31 10:16:42;;;;;;;24.67;13.73;;;;;;;25.18;16.42;102162.50;5036441;28;20067;-80
2021/03/31 10:19:10;;;;;;;25.02;14.75;;;;;;;26.23;16.32;102159.91;5038479;28;20032;-79
2021/03/31 10:21:37;;;;;;;23.90;14.70;;;;;;;26.02;15.30;102159.88;5035796;28;20032;-82
2021/03/31 10:24:04;;;;;;;28.75;15.32;;;;;;;25.79;16.56;102160.03;5034375;28;20029;-80
2021/03/31 10:26:32;;;;;;;24.50;15.18;;;;;;;25.41;16.08;102157.91;5035583;28;20029;-78
2021/03/31 10:29:05;;;;;;;28.52;15.23;;;;;;;25.11;17.24;102153.25;5040058;28;20032;-81
2021/03/31 10:31:40;;;;;;;27.50;16.92;;;;;;;25.63;18.10;102147.09;5052079;28;20025;-81
2021/03/31 10:34:07;;;;;;;24.52;15.52;;;;;;;24.76;17.40;102149.78;5034006;28;20025;-79
2021/03/31 10:36:39;;;;;;;32.15;16.00;;;;;;;24.96;16.46;102150.84;5035877;28;20268;-81
2021/03/31 10:49:51;;;;;;;28.08;15.95;;;;;;;25.94;15.59;102132.94;5046702;28;20493;-81
2021/03/31 10:52:28;;;;;;;28.57;15.37;;;;;;;26.79;14.54;102126.38;5032838;28;20120;-81
2021/03/31 10:54:55;;;;;;;27.33;16.83;;;;;;;26.78;13.86;102130.91;5029754;28;20037;-82
2021/03/31 10:57:22;;;;;;;26.85;15.90;;;;;;;27.09;13.59;102128.09;5050381;28;20112;-83
2021/03/31 10:59:47;;;;;;;25.33;15.32;;;;;;;26.82;15.73;102120.72;5033403;28;20483;-79
2021/03/31 11:02:13;;;;;;;29.83;16.77;;;;;;;25.52;13.78;102119.56;5045068;28;20048;-82
2021/03/31 11:04:39;;;;;;;29.95;17.00;;;;;;;26.02;13.01;102117.03;5045487;28;20028;-81
2021/03/31 11:07:07;;;;;;;28.63;15.52;;;;;;;25.84;13.77;102116.78;5036140;28;20101;-82
2021/03/31 11:09:33;;;;;;;29.00;17.30;;;;;;;26.14;13.91;102113.31;5051887;28;20036;-82
2021/03/31 11:11:59;;;;;;;27.08;15.80;;;;;;;26.65;13.30;102109.69;5036167;28;20294;-81
2021/03/31 11:14:25;;;;;;;31.75;15.52;;;;;;;26.32;13.74;102110.00;5051717;28;20230;-81
2021/03/31 11:27:07;;;;;;;28.90;15.70;;;;;;;26.28;13.61;102094.19;5052662;28;20029;-81
2021/03/31 11:29:33;;;;;;;26.60;16.23;;;;;;;26.58;14.20;102100.53;5038357;28;20044;-81
2021/03/31 11:31:59;;;;;;;28.40;16.10;;;;;;;26.87;12.84;102091.63;5032425;28;20060;-82
2021/03/31 11:34:25;;;;;;;28.00;15.70;;;;;;;26.47;11.66;102096.06;5058006;28;20056;-81
2021/03/31 11:36:53;;;;;;;27.30;16.60;;;;;;;26.84;12.87;102083.88;5056791;28;20058;-85
2021/03/31 11:39:19;;;;;;;30.33;15.98;;;;;;;26.25;12.33;102085.59;5037332;28;20380;-82
2021/03/31 11:41:45;;;;;;;28.20;16.80;;;;;;;26.89;12.83;102084.31;5042546;28;20068;-80
2021/03/31 11:44:11;;;;;;;30.30;16.55;;;;;;;26.67;12.63;102075.56;5033043;28;20318;-76